Cachinal, Argentina
Current Conditions -  °F | °C
As of 6:00 PM on Friday 19 Dec 2014 (Local Time) from SASA Reporting Station
Broken Clouds Broken Clouds  
Wind Chill: 26°   Ceiling: 3500
Heat Index: 27°   Visibility: 6mi
Dew Point: 16°   Wind: 8mph
Humidity: 54%   Direction: 50°NE
Pressure: 29.74"   Gusts: NA
Location:  24.25°S, 66.07°W
Report Text: SASA 192100Z 05007KT 9999 SCT020 BKN03526/16 Q1007
Loading
Personal Weather Stations






























Interactive Weather Map New forecast layout! Learn more

10-Day Weather Forecast

Advertisements
Track Severe Weather on mobile